sensor_id;sensor_type;location;lat;lon;timestamp;temperature;humidity
33594;DHT22;19920;52.242;20.940;2023-07-29T00:00:46;17.50;99.90
33594;DHT22;19920;52.242;20.940;2023-07-29T00:03:12;17.50;99.90
33594;DHT22;19920;52.242;20.940;2023-07-29T00:05:38;17.50;99.90
33594;DHT22;19920;52.242;20.940;2023-07-29T00:08:04;17.50;99.90
33594;DHT22;19920;52.242;20.940;2023-07-29T00:10:32;17.50;99.90
33594;DHT22;19920;52.242;20.940;2023-07-29T00:12:58;17.40;99.90
33594;DHT22;19920;52.242;20.940;2023-07-29T00:15:23;17.50;99.90
33594;DHT22;19920;52.242;20.940;2023-07-29T00:17:49;17.50;99.90
33594;DHT22;19920;52.242;20.940;2023-07-29T00:20:14;17.40;99.90
33594;DHT22;19920;52.242;20.940;2023-07-29T00:22:40;17.40;99.90
33594;DHT22;19920;52.242;20.940;2023-07-29T00:25:06;17.40;99.90
33594;DHT22;19920;52.242;20.940;2023-07-29T00:27:32;17.40;99.90
33594;DHT22;19920;52.242;20.940;2023-07-29T00:29:57;17.30;99.90
33594;DHT22;19920;52.242;20.940;2023-07-29T00:32:23;17.40;99.90
33594;DHT22;19920;52.242;20.940;2023-07-29T00:34:49;17.40;99.90
33594;DHT22;19920;52.242;20.940;2023-07-29T00:37:14;17.40;99.90
33594;DHT22;19920;52.242;20.940;2023-07-29T00:39:40;17.40;99.90
33594;DHT22;19920;52.242;20.940;2023-07-29T00:42:06;17.30;99.90
33594;DHT22;19920;52.242;20.940;2023-07-29T00:44:32;17.30;99.90
33594;DHT22;19920;52.242;20.940;2023-07-29T00:46:58;17.40;99.90
33594;DHT22;19920;52.242;20.940;2023-07-29T00:49:24;17.30;99.90
33594;DHT22;19920;52.242;20.940;2023-07-29T00:51:50;17.30;99.90
33594;DHT22;19920;52.242;20.940;2023-07-29T00:54:16;17.30;99.90
33594;DHT22;19920;52.242;20.940;2023-07-29T00:56:42;17.30;99.90
33594;DHT22;19920;52.242;20.940;2023-07-29T00:59:08;17.30;99.90
33594;DHT22;19920;52.242;20.940;2023-07-29T01:01:33;17.20;99.90
33594;DHT22;19920;52.242;20.940;2023-07-29T01:03:59;17.30;99.90
33594;DHT22;19920;52.242;20.940;2023-07-29T01:06:50;17.20;99.90
33594;DHT22;19920;52.242;20.940;2023-07-29T01:09:30;17.10;99.90
33594;DHT22;19920;52.242;20.940;2023-07-29T01:12:08;17.20;99.90
33594;DHT22;19920;52.242;20.940;2023-07-29T01:14:41;17.10;99.90
33594;DHT22;19920;52.242;20.940;2023-07-29T01:17:19;17.00;99.90
33594;DHT22;19920;52.242;20.940;2023-07-29T01:19:55;17.10;99.90
33594;DHT22;19920;52.242;20.940;2023-07-29T01:22:24;17.00;99.90
33594;DHT22;19920;52.242;20.940;2023-07-29T01:24:49;17.00;99.90
33594;DHT22;19920;52.242;20.940;2023-07-29T01:27:15;17.00;99.90
33594;DHT22;19920;52.242;20.940;2023-07-29T01:29:41;17.00;99.90
33594;DHT22;19920;52.242;20.940;2023-07-29T01:37:55;17.00;99.90
33594;DHT22;19920;52.242;20.940;2023-07-29T01:40:22;17.00;99.90
33594;DHT22;19920;52.242;20.940;2023-07-29T01:42:49;17.00;99.90
33594;DHT22;19920;52.242;20.940;2023-07-29T01:45:14;17.00;99.90
33594;DHT22;19920;52.242;20.940;2023-07-29T01:47:40;17.00;99.90
33594;DHT22;19920;52.242;20.940;2023-07-29T01:50:07;16.90;99.90
33594;DHT22;19920;52.242;20.940;2023-07-29T01:52:33;16.80;99.90
33594;DHT22;19920;52.242;20.940;2023-07-29T01:54:58;16.70;99.90
33594;DHT22;19920;52.242;20.940;2023-07-29T01:57:24;16.80;99.90
33594;DHT22;19920;52.242;20.940;2023-07-29T01:59:49;16.70;99.90
33594;DHT22;19920;52.242;20.940;2023-07-29T02:02:15;16.70;99.90
33594;DHT22;19920;52.242;20.940;2023-07-29T02:04:41;16.60;99.90
33594;DHT22;19920;52.242;20.940;2023-07-29T02:07:06;16.50;99.90
33594;DHT22;19920;52.242;20.940;2023-07-29T02:09:32;16.50;99.90
33594;DHT22;19920;52.242;20.940;2023-07-29T02:11:57;16.50;99.90
33594;DHT22;19920;52.242;20.940;2023-07-29T02:14:23;16.50;99.90
33594;DHT22;19920;52.242;20.940;2023-07-29T02:16:49;16.40;99.90
33594;DHT22;19920;52.242;20.940;2023-07-29T02:19:15;16.40;99.90
33594;DHT22;19920;52.242;20.940;2023-07-29T02:21:41;16.40;99.90
33594;DHT22;19920;52.242;20.940;2023-07-29T02:24:06;16.30;99.90
33594;DHT22;19920;52.242;20.940;2023-07-29T02:26:32;16.30;99.90
33594;DHT22;19920;52.242;20.940;2023-07-29T02:28:57;16.30;99.90
33594;DHT22;19920;52.242;20.940;2023-07-29T02:31:25;16.10;99.90
33594;DHT22;19920;52.242;20.940;2023-07-29T02:33:51;16.20;99.90
33594;DHT22;19920;52.242;20.940;2023-07-29T02:36:17;16.10;99.90
33594;DHT22;19920;52.242;20.940;2023-07-29T02:38:43;16.10;99.90
33594;DHT22;19920;52.242;20.940;2023-07-29T02:41:09;16.10;99.90
33594;DHT22;19920;52.242;20.940;2023-07-29T02:43:37;16.10;99.90
33594;DHT22;19920;52.242;20.940;2023-07-29T02:46:03;16.10;99.90
33594;DHT22;19920;52.242;20.940;2023-07-29T02:48:28;16.10;99.90
33594;DHT22;19920;52.242;20.940;2023-07-29T02:50:55;16.10;99.90
33594;DHT22;19920;52.242;20.940;2023-07-29T02:53:21;16.10;99.90
33594;DHT22;19920;52.242;20.940;2023-07-29T02:55:47;16.00;99.90
33594;DHT22;19920;52.242;20.940;2023-07-29T02:58:13;16.00;99.90
33594;DHT22;19920;52.242;20.940;2023-07-29T03:00:38;16.00;99.90
33594;DHT22;19920;52.242;20.940;2023-07-29T03:03:07;16.00;99.90
33594;DHT22;19920;52.242;20.940;2023-07-29T03:05:33;16.00;99.90
33594;DHT22;19920;52.242;20.940;2023-07-29T03:07:58;16.00;99.90
33594;DHT22;19920;52.242;20.940;2023-07-29T03:10:24;16.00;99.90
33594;DHT22;19920;52.242;20.940;2023-07-29T03:12:50;16.10;99.90
33594;DHT22;19920;52.242;20.940;2023-07-29T03:15:16;16.10;99.90
33594;DHT22;19920;52.242;20.940;2023-07-29T03:17:41;16.20;99.90
33594;DHT22;19920;52.242;20.940;2023-07-29T03:20:07;16.30;99.90
33594;DHT22;19920;52.242;20.940;2023-07-29T03:22:33;16.30;99.90
33594;DHT22;19920;52.242;20.940;2023-07-29T03:24:59;16.30;99.90
33594;DHT22;19920;52.242;20.940;2023-07-29T03:27:24;16.30;99.90
33594;DHT22;19920;52.242;20.940;2023-07-29T03:29:50;16.20;99.90
33594;DHT22;19920;52.242;20.940;2023-07-29T03:32:15;16.30;99.90
33594;DHT22;19920;52.242;20.940;2023-07-29T03:34:41;16.30;99.90
33594;DHT22;19920;52.242;20.940;2023-07-29T03:37:07;16.30;99.90
33594;DHT22;19920;52.242;20.940;2023-07-29T03:39:32;16.40;99.90
33594;DHT22;19920;52.242;20.940;2023-07-29T03:41:58;16.40;99.90
33594;DHT22;19920;52.242;20.940;2023-07-29T03:44:24;16.30;99.90
33594;DHT22;19920;52.242;20.940;2023-07-29T03:46:49;16.20;99.90
33594;DHT22;19920;52.242;20.940;2023-07-29T03:49:15;16.30;99.90
33594;DHT22;19920;52.242;20.940;2023-07-29T03:51:40;16.30;99.90
33594;DHT22;19920;52.242;20.940;2023-07-29T03:54:06;16.30;99.90
33594;DHT22;19920;52.242;20.940;2023-07-29T03:56:32;16.20;99.90
33594;DHT22;19920;52.242;20.940;2023-07-29T03:59:02;16.20;99.90
33594;DHT22;19920;52.242;20.940;2023-07-29T04:01:28;16.30;99.90
33594;DHT22;19920;52.242;20.940;2023-07-29T04:03:54;16.30;99.90
33594;DHT22;19920;52.242;20.940;2023-07-29T04:06:20;16.40;99.90
33594;DHT22;19920;52.242;20.940;2023-07-29T04:08:46;16.40;99.90
33594;DHT22;19920;52.242;20.940;2023-07-29T04:11:12;16.40;99.90
33594;DHT22;19920;52.242;20.940;2023-07-29T04:13:37;16.40;99.90
33594;DHT22;19920;52.242;20.940;2023-07-29T04:16:04;16.40;99.90
33594;DHT22;19920;52.242;20.940;2023-07-29T04:18:29;16.50;99.90
33594;DHT22;19920;52.242;20.940;2023-07-29T04:20:55;16.60;99.90
33594;DHT22;19920;52.242;20.940;2023-07-29T04:23:21;16.60;99.90
33594;DHT22;19920;52.242;20.940;2023-07-29T04:25:46;16.60;99.90
33594;DHT22;19920;52.242;20.940;2023-07-29T04:28:12;16.70;99.90
33594;DHT22;19920;52.242;20.940;2023-07-29T04:30:37;16.70;99.90
33594;DHT22;19920;52.242;20.940;2023-07-29T04:33:03;16.70;99.90
33594;DHT22;19920;52.242;20.940;2023-07-29T04:35:28;16.80;99.90
33594;DHT22;19920;52.242;20.940;2023-07-29T04:37:54;16.70;99.90
33594;DHT22;19920;52.242;20.940;2023-07-29T04:40:20;16.60;99.90
33594;DHT22;19920;52.242;20.940;2023-07-29T04:42:45;16.70;99.90
33594;DHT22;19920;52.242;20.940;2023-07-29T04:45:11;16.80;99.90
33594;DHT22;19920;52.242;20.940;2023-07-29T04:47:36;16.80;99.90
33594;DHT22;19920;52.242;20.940;2023-07-29T04:50:02;16.70;99.90
33594;DHT22;19920;52.242;20.940;2023-07-29T04:52:28;16.80;99.90
33594;DHT22;19920;52.242;20.940;2023-07-29T04:54:53;16.90;99.90
33594;DHT22;19920;52.242;20.940;2023-07-29T04:57:19;16.90;99.90
33594;DHT22;19920;52.242;20.940;2023-07-29T04:59:44;17.00;99.90
33594;DHT22;19920;52.242;20.940;2023-07-29T05:02:10;17.10;99.90
33594;DHT22;19920;52.242;20.940;2023-07-29T05:04:35;17.20;99.90
33594;DHT22;19920;52.242;20.940;2023-07-29T05:07:01;17.20;99.90
33594;DHT22;19920;52.242;20.940;2023-07-29T05:09:26;17.30;99.90
33594;DHT22;19920;52.242;20.940;2023-07-29T05:11:52;17.30;99.90
33594;DHT22;19920;52.242;20.940;2023-07-29T05:14:18;17.20;99.90
33594;DHT22;19920;52.242;20.940;2023-07-29T05:16:44;17.30;99.90
33594;DHT22;19920;52.242;20.940;2023-07-29T05:19:09;17.30;99.90
33594;DHT22;19920;52.242;20.940;2023-07-29T05:21:35;17.30;99.90
33594;DHT22;19920;52.242;20.940;2023-07-29T05:24:01;17.40;99.90
33594;DHT22;19920;52.242;20.940;2023-07-29T05:26:26;17.40;99.90
33594;DHT22;19920;52.242;20.940;2023-07-29T05:28:52;17.40;99.90
33594;DHT22;19920;52.242;20.940;2023-07-29T05:31:17;17.50;99.90
33594;DHT22;19920;52.242;20.940;2023-07-29T05:33:43;17.50;99.90
33594;DHT22;19920;52.242;20.940;2023-07-29T05:36:09;17.60;99.90
33594;DHT22;19920;52.242;20.940;2023-07-29T05:38:34;17.60;99.90
33594;DHT22;19920;52.242;20.940;2023-07-29T05:41:00;17.90;99.90
33594;DHT22;19920;52.242;20.940;2023-07-29T05:43:27;18.00;99.90
33594;DHT22;19920;52.242;20.940;2023-07-29T05:45:52;17.90;99.90
33594;DHT22;19920;52.242;20.940;2023-07-29T05:48:19;17.90;99.90
33594;DHT22;19920;52.242;20.940;2023-07-29T05:50:45;17.90;99.90
33594;DHT22;19920;52.242;20.940;2023-07-29T05:53:11;18.00;99.90
33594;DHT22;19920;52.242;20.940;2023-07-29T05:55:36;18.00;99.90
33594;DHT22;19920;52.242;20.940;2023-07-29T05:58:02;18.20;99.90
33594;DHT22;19920;52.242;20.940;2023-07-29T06:00:27;18.30;99.90
33594;DHT22;19920;52.242;20.940;2023-07-29T06:02:53;18.50;99.90
33594;DHT22;19920;52.242;20.940;2023-07-29T06:05:18;18.20;99.90
33594;DHT22;19920;52.242;20.940;2023-07-29T06:07:44;18.00;99.90
33594;DHT22;19920;52.242;20.940;2023-07-29T06:10:14;18.00;99.90
33594;DHT22;19920;52.242;20.940;2023-07-29T06:12:39;18.20;99.90
33594;DHT22;19920;52.242;20.940;2023-07-29T06:15:05;18.30;99.90
33594;DHT22;19920;52.242;20.940;2023-07-29T06:17:31;18.50;99.90
33594;DHT22;19920;52.242;20.940;2023-07-29T06:19:56;18.60;99.90
33594;DHT22;19920;52.242;20.940;2023-07-29T06:22:22;18.80;99.90
33594;DHT22;19920;52.242;20.940;2023-07-29T06:24:47;19.00;99.90
33594;DHT22;19920;52.242;20.940;2023-07-29T06:27:13;19.20;99.90
33594;DHT22;19920;52.242;20.940;2023-07-29T06:29:38;19.20;99.90
33594;DHT22;19920;52.242;20.940;2023-07-29T06:32:04;19.30;99.90
33594;DHT22;19920;52.242;20.940;2023-07-29T06:34:30;19.20;99.90
33594;DHT22;19920;52.242;20.940;2023-07-29T06:36:56;19.30;99.90
33594;DHT22;19920;52.242;20.940;2023-07-29T06:39:21;19.50;99.90
33594;DHT22;19920;52.242;20.940;2023-07-29T06:41:47;19.40;99.90
33594;DHT22;19920;52.242;20.940;2023-07-29T06:44:12;19.40;99.90
33594;DHT22;19920;52.242;20.940;2023-07-29T06:46:38;19.20;99.90
33594;DHT22;19920;52.242;20.940;2023-07-29T06:49:05;19.10;99.90
33594;DHT22;19920;52.242;20.940;2023-07-29T06:51:31;19.30;99.90
33594;DHT22;19920;52.242;20.940;2023-07-29T06:53:59;19.40;99.90
33594;DHT22;19920;52.242;20.940;2023-07-29T06:56:25;19.60;99.90
33594;DHT22;19920;52.242;20.940;2023-07-29T06:58:51;19.50;99.90
33594;DHT22;19920;52.242;20.940;2023-07-29T07:01:16;19.70;99.90
33594;DHT22;19920;52.242;20.940;2023-07-29T07:03:42;19.60;99.90
33594;DHT22;19920;52.242;20.940;2023-07-29T07:06:08;19.50;99.90
33594;DHT22;19920;52.242;20.940;2023-07-29T07:08:33;19.30;99.90
33594;DHT22;19920;52.242;20.940;2023-07-29T07:10:59;19.10;99.90
33594;DHT22;19920;52.242;20.940;2023-07-29T07:13:24;19.00;99.90
33594;DHT22;19920;52.242;20.940;2023-07-29T07:15:50;18.90;99.90
33594;DHT22;19920;52.242;20.940;2023-07-29T07:18:15;18.90;99.90
33594;DHT22;19920;52.242;20.940;2023-07-29T07:20:41;18.70;99.90
33594;DHT22;19920;52.242;20.940;2023-07-29T07:23:06;18.80;99.90
33594;DHT22;19920;52.242;20.940;2023-07-29T07:25:36;19.00;99.90
33594;DHT22;19920;52.242;20.940;2023-07-29T07:28:02;19.10;99.90
33594;DHT22;19920;52.242;20.940;2023-07-29T07:30:27;19.10;99.90
33594;DHT22;19920;52.242;20.940;2023-07-29T07:32:53;19.00;99.90
33594;DHT22;19920;52.242;20.940;2023-07-29T07:35:18;19.00;99.90
33594;DHT22;19920;52.242;20.940;2023-07-29T07:37:44;19.00;99.90
33594;DHT22;19920;52.242;20.940;2023-07-29T07:40:10;19.10;99.90
33594;DHT22;19920;52.242;20.940;2023-07-29T07:42:36;19.30;99.90
33594;DHT22;19920;52.242;20.940;2023-07-29T07:45:02;19.50;99.90
33594;DHT22;19920;52.242;20.940;2023-07-29T07:47:27;19.30;99.90
33594;DHT22;19920;52.242;20.940;2023-07-29T07:49:53;19.40;99.90
33594;DHT22;19920;52.242;20.940;2023-07-29T07:52:19;19.50;99.90
33594;DHT22;19920;52.242;20.940;2023-07-29T07:54:44;19.60;99.90
33594;DHT22;19920;52.242;20.940;2023-07-29T07:57:10;19.50;99.90
33594;DHT22;19920;52.242;20.940;2023-07-29T07:59:35;19.40;99.90
33594;DHT22;19920;52.242;20.940;2023-07-29T08:02:01;19.40;99.90
33594;DHT22;19920;52.242;20.940;2023-07-29T08:04:26;19.40;99.90
33594;DHT22;19920;52.242;20.940;2023-07-29T08:06:52;19.50;99.90
33594;DHT22;19920;52.242;20.940;2023-07-29T08:09:17;19.50;99.90
33594;DHT22;19920;52.242;20.940;2023-07-29T08:11:43;19.60;99.90
33594;DHT22;19920;52.242;20.940;2023-07-29T08:14:08;19.70;99.90
33594;DHT22;19920;52.242;20.940;2023-07-29T08:16:34;19.90;99.90
33594;DHT22;19920;52.242;20.940;2023-07-29T08:18:59;20.10;99.90
33594;DHT22;19920;52.242;20.940;2023-07-29T08:21:26;20.30;99.90
33594;DHT22;19920;52.242;20.940;2023-07-29T08:23:52;20.50;99.90
33594;DHT22;19920;52.242;20.940;2023-07-29T08:26:18;20.70;99.90
33594;DHT22;19920;52.242;20.940;2023-07-29T08:28:43;20.80;99.90
33594;DHT22;19920;52.242;20.940;2023-07-29T08:31:09;20.80;99.90
33594;DHT22;19920;52.242;20.940;2023-07-29T08:33:35;20.80;99.90
33594;DHT22;19920;52.242;20.940;2023-07-29T08:36:01;21.00;99.90
33594;DHT22;19920;52.242;20.940;2023-07-29T08:38:27;21.20;99.90
33594;DHT22;19920;52.242;20.940;2023-07-29T08:40:59;21.40;99.90
33594;DHT22;19920;52.242;20.940;2023-07-29T08:43:32;21.50;99.90
33594;DHT22;19920;52.242;20.940;2023-07-29T08:45:59;21.50;99.90
33594;DHT22;19920;52.242;20.940;2023-07-29T08:51:01;21.60;99.90
33594;DHT22;19920;52.242;20.940;2023-07-29T08:53:28;21.80;99.90
33594;DHT22;19920;52.242;20.940;2023-07-29T08:55:54;21.90;99.90
33594;DHT22;19920;52.242;20.940;2023-07-29T08:58:21;22.00;99.90
33594;DHT22;19920;52.242;20.940;2023-07-29T09:00:48;22.10;99.90
33594;DHT22;19920;52.242;20.940;2023-07-29T09:03:14;22.10;99.90
33594;DHT22;19920;52.242;20.940;2023-07-29T09:05:40;22.10;99.90
33594;DHT22;19920;52.242;20.940;2023-07-29T09:08:06;22.20;99.90
33594;DHT22;19920;52.242;20.940;2023-07-29T09:10:36;22.30;99.90
33594;DHT22;19920;52.242;20.940;2023-07-29T09:13:02;22.10;99.90
33594;DHT22;19920;52.242;20.940;2023-07-29T09:15:29;22.00;99.90
33594;DHT22;19920;52.242;20.940;2023-07-29T09:17:56;21.80;99.90
33594;DHT22;19920;52.242;20.940;2023-07-29T09:20:26;22.00;99.90
33594;DHT22;19920;52.242;20.940;2023-07-29T09:22:57;22.00;99.90
33594;DHT22;19920;52.242;20.940;2023-07-29T09:25:27;21.90;99.90
33594;DHT22;19920;52.242;20.940;2023-07-29T09:28:01;22.00;99.90
33594;DHT22;19920;52.242;20.940;2023-07-29T09:30:32;22.00;99.90
33594;DHT22;19920;52.242;20.940;2023-07-29T09:32:58;22.10;99.90
33594;DHT22;19920;52.242;20.940;2023-07-29T09:35:26;22.10;99.90
33594;DHT22;19920;52.242;20.940;2023-07-29T09:37:52;22.30;99.90
33594;DHT22;19920;52.242;20.940;2023-07-29T09:40:18;22.10;99.90
33594;DHT22;19920;52.242;20.940;2023-07-29T09:42:50;22.20;99.90
33594;DHT22;19920;52.242;20.940;2023-07-29T09:45:23;22.30;99.90
33594;DHT22;19920;52.242;20.940;2023-07-29T09:47:50;22.40;99.90
33594;DHT22;19920;52.242;20.940;2023-07-29T09:50:16;22.20;99.90
33594;DHT22;19920;52.242;20.940;2023-07-29T09:52:42;22.00;99.90
33594;DHT22;19920;52.242;20.940;2023-07-29T09:55:11;22.00;99.90
33594;DHT22;19920;52.242;20.940;2023-07-29T09:57:37;22.00;99.90
33594;DHT22;19920;52.242;20.940;2023-07-29T10:00:05;22.00;99.90
33594;DHT22;19920;52.242;20.940;2023-07-29T10:02:40;22.10;99.90
33594;DHT22;19920;52.242;20.940;2023-07-29T10:05:07;22.30;99.90
33594;DHT22;19920;52.242;20.940;2023-07-29T10:07:34;22.50;99.90
33594;DHT22;19920;52.242;20.940;2023-07-29T10:10:02;22.60;99.90
33594;DHT22;19920;52.242;20.940;2023-07-29T10:12:29;22.80;99.90
33594;DHT22;19920;52.242;20.940;2023-07-29T10:15:07;23.00;99.90
33594;DHT22;19920;52.242;20.940;2023-07-29T10:17:35;22.80;99.90
33594;DHT22;19920;52.242;20.940;2023-07-29T10:20:03;22.90;99.90
33594;DHT22;19920;52.242;20.940;2023-07-29T10:22:39;23.00;99.90
33594;DHT22;19920;52.242;20.940;2023-07-29T10:25:08;22.90;99.90
33594;DHT22;19920;52.242;20.940;2023-07-29T10:27:43;23.10;99.90
33594;DHT22;19920;52.242;20.940;2023-07-29T10:30:11;23.40;99.90
33594;DHT22;19920;52.242;20.940;2023-07-29T10:32:38;23.60;99.90
33594;DHT22;19920;52.242;20.940;2023-07-29T10:35:04;23.80;99.90
33594;DHT22;19920;52.242;20.940;2023-07-29T10:37:30;23.90;99.90
33594;DHT22;19920;52.242;20.940;2023-07-29T10:39:56;24.10;99.90
33594;DHT22;19920;52.242;20.940;2023-07-29T10:42:22;24.00;99.90
33594;DHT22;19920;52.242;20.940;2023-07-29T10:44:52;24.10;99.90
33594;DHT22;19920;52.242;20.940;2023-07-29T10:47:25;24.20;99.90
33594;DHT22;19920;52.242;20.940;2023-07-29T10:49:56;24.10;99.90
33594;DHT22;19920;52.242;20.940;2023-07-29T10:52:40;24.20;99.90
33594;DHT22;19920;52.242;20.940;2023-07-29T10:55:24;24.10;99.90
33594;DHT22;19920;52.242;20.940;2023-07-29T10:57:51;24.20;99.90
33594;DHT22;19920;52.242;20.940;2023-07-29T11:00:19;24.20;99.90
33594;DHT22;19920;52.242;20.940;2023-07-29T11:02:57;24.10;99.90
33594;DHT22;19920;52.242;20.940;2023-07-29T11:05:24;24.20;99.90
33594;DHT22;19920;52.242;20.940;2023-07-29T11:07:50;24.10;99.90
33594;DHT22;19920;52.242;20.940;2023-07-29T11:10:16;24.30;99.90
33594;DHT22;19920;52.242;20.940;2023-07-29T11:12:48;24.20;99.90
33594;DHT22;19920;52.242;20.940;2023-07-29T11:15:23;24.40;99.90
33594;DHT22;19920;52.242;20.940;2023-07-29T11:17:59;24.50;99.90
33594;DHT22;19920;52.242;20.940;2023-07-29T11:20:27;24.70;99.90
33594;DHT22;19920;52.242;20.940;2023-07-29T11:22:54;24.80;99.90
33594;DHT22;19920;52.242;20.940;2023-07-29T11:25:22;24.90;99.90
33594;DHT22;19920;52.242;20.940;2023-07-29T11:27:49;24.90;99.90
33594;DHT22;19920;52.242;20.940;2023-07-29T11:30:16;25.00;99.90
33594;DHT22;19920;52.242;20.940;2023-07-29T11:32:44;25.00;99.90
33594;DHT22;19920;52.242;20.940;2023-07-29T11:35:11;25.10;99.90
33594;DHT22;19920;52.242;20.940;2023-07-29T11:37:39;25.30;99.90
33594;DHT22;19920;52.242;20.940;2023-07-29T11:40:05;25.30;99.90
33594;DHT22;19920;52.242;20.940;2023-07-29T11:42:32;25.30;99.90
33594;DHT22;19920;52.242;20.940;2023-07-29T11:44:59;25.20;99.90
33594;DHT22;19920;52.242;20.940;2023-07-29T11:47:25;25.10;99.90
33594;DHT22;19920;52.242;20.940;2023-07-29T11:49:51;25.10;99.90
33594;DHT22;19920;52.242;20.940;2023-07-29T11:52:18;25.10;99.90
33594;DHT22;19920;52.242;20.940;2023-07-29T11:54:48;25.00;99.90
33594;DHT22;19920;52.242;20.940;2023-07-29T11:57:14;25.00;99.90
33594;DHT22;19920;52.242;20.940;2023-07-29T11:59:41;25.30;99.90
33594;DHT22;19920;52.242;20.940;2023-07-29T12:02:12;25.40;99.90
33594;DHT22;19920;52.242;20.940;2023-07-29T12:04:39;25.50;99.90
33594;DHT22;19920;52.242;20.940;2023-07-29T12:07:05;25.50;99.90
33594;DHT22;19920;52.242;20.940;2023-07-29T12:09:31;25.60;99.90
33594;DHT22;19920;52.242;20.940;2023-07-29T12:11:58;25.80;99.90
33594;DHT22;19920;52.242;20.940;2023-07-29T12:14:26;25.90;99.90
33594;DHT22;19920;52.242;20.940;2023-07-29T12:16:53;25.90;99.90
33594;DHT22;19920;52.242;20.940;2023-07-29T12:19:19;25.80;99.90
33594;DHT22;19920;52.242;20.940;2023-07-29T12:21:45;25.80;99.90
33594;DHT22;19920;52.242;20.940;2023-07-29T12:24:13;25.90;99.90
33594;DHT22;19920;52.242;20.940;2023-07-29T12:26:40;26.10;99.90
33594;DHT22;19920;52.242;20.940;2023-07-29T12:29:18;26.10;99.90
33594;DHT22;19920;52.242;20.940;2023-07-29T12:31:47;26.00;99.90
33594;DHT22;19920;52.242;20.940;2023-07-29T12:34:20;26.10;99.90
33594;DHT22;19920;52.242;20.940;2023-07-29T12:36:47;26.20;99.90
33594;DHT22;19920;52.242;20.940;2023-07-29T12:39:27;26.30;99.90
33594;DHT22;19920;52.242;20.940;2023-07-29T12:41:55;26.30;99.90
33594;DHT22;19920;52.242;20.940;2023-07-29T12:44:23;26.40;99.90
33594;DHT22;19920;52.242;20.940;2023-07-29T12:46:48;26.60;99.90
33594;DHT22;19920;52.242;20.940;2023-07-29T12:49:14;26.50;99.90
33594;DHT22;19920;52.242;20.940;2023-07-29T12:51:40;26.30;99.90
33594;DHT22;19920;52.242;20.940;2023-07-29T12:54:06;26.40;99.90
33594;DHT22;19920;52.242;20.940;2023-07-29T12:56:32;26.70;99.90
33594;DHT22;19920;52.242;20.940;2023-07-29T12:58:59;26.70;99.90
33594;DHT22;19920;52.242;20.940;2023-07-29T13:01:25;26.60;99.90
33594;DHT22;19920;52.242;20.940;2023-07-29T13:03:51;26.80;99.90
33594;DHT22;19920;52.242;20.940;2023-07-29T13:06:16;26.90;99.90
33594;DHT22;19920;52.242;20.940;2023-07-29T13:08:44;26.90;99.90
33594;DHT22;19920;52.242;20.940;2023-07-29T13:11:10;27.30;99.90
33594;DHT22;19920;52.242;20.940;2023-07-29T13:13:36;27.60;99.90
33594;DHT22;19920;52.242;20.940;2023-07-29T13:16:02;27.70;99.90
33594;DHT22;19920;52.242;20.940;2023-07-29T13:18:28;27.80;99.90
33594;DHT22;19920;52.242;20.940;2023-07-29T13:20:54;27.90;99.90
33594;DHT22;19920;52.242;20.940;2023-07-29T13:23:20;28.10;99.90
33594;DHT22;19920;52.242;20.940;2023-07-29T13:25:45;28.10;99.90
33594;DHT22;19920;52.242;20.940;2023-07-29T13:28:12;28.40;99.90
33594;DHT22;19920;52.242;20.940;2023-07-29T13:30:40;28.40;99.90
33594;DHT22;19920;52.242;20.940;2023-07-29T13:33:09;28.60;99.90
33594;DHT22;19920;52.242;20.940;2023-07-29T13:35:34;28.90;99.90
33594;DHT22;19920;52.242;20.940;2023-07-29T13:38:00;29.10;99.90
33594;DHT22;19920;52.242;20.940;2023-07-29T13:40:26;28.80;99.90
33594;DHT22;19920;52.242;20.940;2023-07-29T13:42:52;28.30;99.90
33594;DHT22;19920;52.242;20.940;2023-07-29T13:45:18;28.60;99.90
33594;DHT22;19920;52.242;20.940;2023-07-29T13:47:44;29.10;99.90
33594;DHT22;19920;52.242;20.940;2023-07-29T13:50:10;29.50;99.90
33594;DHT22;19920;52.242;20.940;2023-07-29T13:52:36;29.70;99.90
33594;DHT22;19920;52.242;20.940;2023-07-29T13:55:03;29.70;99.90
33594;DHT22;19920;52.242;20.940;2023-07-29T13:57:28;30.10;99.90
33594;DHT22;19920;52.242;20.940;2023-07-29T13:59:54;30.10;99.90
33594;DHT22;19920;52.242;20.940;2023-07-29T14:02:19;29.70;99.90
33594;DHT22;19920;52.242;20.940;2023-07-29T14:04:45;29.60;99.90
33594;DHT22;19920;52.242;20.940;2023-07-29T14:07:11;29.40;99.90
33594;DHT22;19920;52.242;20.940;2023-07-29T14:09:36;29.20;99.90
33594;DHT22;19920;52.242;20.940;2023-07-29T14:12:04;29.30;99.90
33594;DHT22;19920;52.242;20.940;2023-07-29T14:14:29;29.50;99.90
33594;DHT22;19920;52.242;20.940;2023-07-29T14:16:55;29.90;99.90
33594;DHT22;19920;52.242;20.940;2023-07-29T14:19:21;30.30;99.90
33594;DHT22;19920;52.242;20.940;2023-07-29T14:21:46;30.60;99.90
33594;DHT22;19920;52.242;20.940;2023-07-29T14:24:12;30.70;99.90
33594;DHT22;19920;52.242;20.940;2023-07-29T14:26:37;30.80;99.90
33594;DHT22;19920;52.242;20.940;2023-07-29T14:29:03;30.90;99.90
33594;DHT22;19920;52.242;20.940;2023-07-29T14:31:28;31.40;99.90
33594;DHT22;19920;52.242;20.940;2023-07-29T14:33:54;31.90;99.90
33594;DHT22;19920;52.242;20.940;2023-07-29T14:36:20;32.40;99.90
33594;DHT22;19920;52.242;20.940;2023-07-29T14:38:46;32.90;99.90
33594;DHT22;19920;52.242;20.940;2023-07-29T14:41:12;33.40;99.90
33594;DHT22;19920;52.242;20.940;2023-07-29T14:43:38;33.30;99.90
33594;DHT22;19920;52.242;20.940;2023-07-29T14:46:04;33.60;99.90
33594;DHT22;19920;52.242;20.940;2023-07-29T14:48:30;34.00;99.90
33594;DHT22;19920;52.242;20.940;2023-07-29T14:50:55;34.20;99.90
33594;DHT22;19920;52.242;20.940;2023-07-29T14:53:21;34.80;99.90
33594;DHT22;19920;52.242;20.940;2023-07-29T14:55:46;35.30;99.10
33594;DHT22;19920;52.242;20.940;2023-07-29T14:58:12;34.70;97.10
33594;DHT22;19920;52.242;20.940;2023-07-29T15:00:37;34.10;97.00
33594;DHT22;19920;52.242;20.940;2023-07-29T15:03:03;34.30;97.90
33594;DHT22;19920;52.242;20.940;2023-07-29T15:05:28;34.50;99.10
33594;DHT22;19920;52.242;20.940;2023-07-29T15:07:54;34.40;98.70
33594;DHT22;19920;52.242;20.940;2023-07-29T15:10:20;34.50;97.90
33594;DHT22;19920;52.242;20.940;2023-07-29T15:12:46;34.70;98.30
33594;DHT22;19920;52.242;20.940;2023-07-29T15:15:12;35.00;97.60
33594;DHT22;19920;52.242;20.940;2023-07-29T15:17:37;34.70;97.10
33594;DHT22;19920;52.242;20.940;2023-07-29T15:20:04;34.80;96.60